Terminal Aerodrome Forecast
Issued by NWS

Home | Current Version | Previous Version | Text Only | Print | Product List | Glossary On
Versions: 1 2 3 4 5 6 7 8 9 10 11 12 13 14 15 16 17 18 19
000
FTUS43 KAPX 260539
TAFPLN
TAF
KPLN 260539Z 2606/2706 21006KT P6SM VCSH SCT045 BKN090
      WS020/22035KT
      TEMPO 2606/2610 21010G20KT 5SM -SHRA SCT028 BKN050
     FM261400 20010G18KT P6SM SCT040
     FM261800 19011G20KT P6SM VCTS BKN050CB
     FM270500 15006KT P6SM FEW070 BKN120=

USA.gov is the U.S. government's official web portal to all federal, state and local government web resources and services.